Time;durP1;ratioP1;P1;durP2;ratioP2;P2;SDS_P1;SDS_P2;PMS_P1;PMS_P2;Temp;Humidity;BMP_temperature;BMP_pressure;BME280_temperature;BME280_humidity;BME280_pressure;Samples;Min_cycle;Max_cycle;Signal;HPM_P1;HPM_P2
2022/09/27 00:00:45;;;;;;;3.83;0.57;;;;;;;9.17;100.00;97034.84;5044243;28;20112;-54
2022/09/27 00:03:11;;;;;;;1.15;0.77;;;;;;;9.19;100.00;97013.81;5050300;28;20464;-55
2022/09/27 00:05:41;;;;;;;2.80;0.80;;;;;;;9.19;100.00;97013.81;5051291;28;20036;-55
2022/09/27 00:08:07;;;;;;;1.08;0.68;;;;;;;9.23;100.00;97017.69;5063729;28;20032;-55
2022/09/27 00:10:32;;;;;;;1.45;0.82;;;;;;;9.20;100.00;97010.88;5041457;28;20464;-54
2022/09/27 00:13:08;;;;;;;0.98;0.60;;;;;;;9.20;100.00;97016.28;5043216;28;20029;-55
2022/09/27 00:15:33;;;;;;;2.70;0.73;;;;;;;9.20;100.00;97015.47;5051169;28;20029;-54
2022/09/27 00:17:58;;;;;;;1.52;0.90;;;;;;;9.15;100.00;97007.28;5066449;28;20024;-54
2022/09/27 00:20:25;;;;;;;1.90;0.93;;;;;;;9.14;100.00;97013.72;5040745;28;20037;-55
2022/09/27 00:22:50;;;;;;;2.53;0.75;;;;;;;9.12;100.00;97011.25;5043219;28;20035;-56
2022/09/27 00:25:16;;;;;;;2.63;1.05;;;;;;;9.10;100.00;97007.16;5056088;28;20024;-55
2022/09/27 00:27:41;;;;;;;1.60;0.75;;;;;;;9.20;100.00;97008.19;5067559;28;20036;-56
2022/09/27 00:30:08;;;;;;;1.45;0.60;;;;;;;9.15;100.00;96999.19;5055792;28;20053;-56
2022/09/27 00:32:33;;;;;;;4.55;0.85;;;;;;;9.11;100.00;96998.81;5043444;28;20480;-55
2022/09/27 00:34:58;;;;;;;2.15;0.77;;;;;;;9.12;100.00;97000.47;5047048;28;20025;-55
2022/09/27 00:37:24;;;;;;;1.48;0.88;;;;;;;9.11;100.00;97000.69;5054108;28;20043;-56
2022/09/27 00:39:50;;;;;;;1.40;0.60;;;;;;;9.06;100.00;97000.59;5053237;28;20502;-55
2022/09/27 00:42:15;;;;;;;1.73;0.77;;;;;;;9.04;100.00;97000.84;5032565;28;20025;-55
2022/09/27 00:44:40;;;;;;;3.05;1.05;;;;;;;9.05;100.00;97001.66;5044237;28;20029;-54
2022/09/27 00:47:32;;;;;;;1.60;1.05;;;;;;;8.97;100.00;96987.47;5047440;28;20064;-54
2022/09/27 00:50:17;;;;;;;2.08;1.23;;;;;;;9.00;100.00;97003.19;5047209;28;20116;-54
2022/09/27 00:53:01;;;;;;;4.68;1.15;;;;;;;8.99;100.00;96992.66;5067249;28;20488;-55
2022/09/27 00:55:32;;;;;;;1.85;1.13;;;;;;;8.99;100.00;96989.94;5056514;28;20024;-54
2022/09/27 00:57:58;;;;;;;2.53;1.20;;;;;;;9.03;100.00;96991.09;5047625;28;20031;-54
2022/09/27 01:00:24;;;;;;;2.15;1.08;;;;;;;9.06;100.00;96992.50;5046390;28;20036;-54
2022/09/27 01:02:53;;;;;;;1.60;1.05;;;;;;;9.04;100.00;96986.50;5035335;28;20029;-54
2022/09/27 01:05:22;;;;;;;1.63;1.10;;;;;;;9.04;100.00;96994.59;5038783;28;20136;-54
2022/09/27 01:07:48;;;;;;;2.40;1.30;;;;;;;8.98;100.00;96994.50;5047618;28;20031;-54
2022/09/27 01:10:15;;;;;;;3.65;1.50;;;;;;;9.02;100.00;96999.44;5057521;28;20029;-54
2022/09/27 01:13:06;;;;;;;2.95;1.50;;;;;;;9.11;100.00;96992.59;5043946;28;20039;-54
2022/09/27 01:15:39;;;;;;;2.95;1.30;;;;;;;9.11;100.00;96998.81;5039275;28;20030;-54
2022/09/27 01:18:14;;;;;;;2.92;1.20;;;;;;;9.07;100.00;96996.84;5053372;28;20028;-54
2022/09/27 01:21:04;;;;;;;3.30;1.08;;;;;;;9.14;100.00;97003.75;5053914;28;20035;-55
2022/09/27 01:23:33;;;;;;;4.47;1.02;;;;;;;9.14;100.00;97000.22;5056166;28;20115;-54
2022/09/27 01:26:22;;;;;;;1.05;0.80;;;;;;;9.08;100.00;96995.78;5043993;28;20174;-54
2022/09/27 01:29:10;;;;;;;1.95;1.20;;;;;;;9.13;100.00;96982.41;5050637;28;20020;-54
2022/09/27 01:31:58;;;;;;;4.97;0.80;;;;;;;9.12;100.00;96988.88;5047172;28;20033;-54
2022/09/27 01:35:07;;;;;;;1.10;0.70;;;;;;;9.14;100.00;96984.88;5046765;28;20039;-54
2022/09/27 01:38:02;;;;;;;0.95;0.60;;;;;;;9.16;100.00;96988.13;5024233;28;20032;-55
2022/09/27 01:40:49;;;;;;;1.45;0.90;;;;;;;9.14;100.00;96981.34;5041114;28;20037;-55
2022/09/27 01:43:21;;;;;;;3.70;0.75;;;;;;;9.16;100.00;96982.72;5053892;28;20036;-55
2022/09/27 01:46:12;;;;;;;4.07;0.70;;;;;;;9.24;100.00;96983.44;5053819;28;20028;-55
2022/09/27 01:48:45;;;;;;;0.80;0.50;;;;;;;9.17;100.00;96975.47;5057448;28;20120;-54
2022/09/27 01:51:18;;;;;;;1.17;0.75;;;;;;;9.16;100.00;96963.84;5051863;28;20029;-55
2022/09/27 01:53:47;;;;;;;3.17;0.50;;;;;;;9.27;100.00;96975.66;5042153;28;20124;-54
2022/09/27 01:56:17;;;;;;;0.43;0.40;;;;;;;9.28;100.00;96976.50;5064013;28;20033;-54
2022/09/27 01:59:35;;;;;;;1.65;0.60;;;;;;;9.21;100.00;96979.31;5048729;28;20079;-55
2022/09/27 02:02:06;;;;;;;1.48;0.75;;;;;;;9.23;100.00;96979.91;5045144;28;20040;-55
2022/09/27 02:04:34;;;;;;;0.70;0.60;;;;;;;9.24;100.00;96973.44;5058218;28;20027;-55
2022/09/27 02:07:26;;;;;;;3.83;0.90;;;;;;;9.23;100.00;96979.09;5048651;28;20029;-55
2022/09/27 02:10:13;;;;;;;7.22;0.75;;;;;;;9.24;100.00;96976.16;5040993;28;20031;-54
2022/09/27 02:12:56;;;;;;;2.35;0.68;;;;;;;9.20;100.00;96973.13;5042732;28;20112;-55
2022/09/27 02:15:23;;;;;;;1.38;0.47;;;;;;;9.24;100.00;96978.03;5044756;28;20036;-54
2022/09/27 02:17:52;;;;;;;2.67;0.70;;;;;;;9.22;100.00;96978.25;5048041;28;20025;-54
2022/09/27 02:20:39;;;;;;;1.63;0.65;;;;;;;9.29;100.00;96975.44;5051634;28;20075;-54
2022/09/27 02:23:19;;;;;;;0.75;0.60;;;;;;;9.36;100.00;96985.03;5045435;28;20075;-54
2022/09/27 02:26:01;;;;;;;4.63;0.40;;;;;;;9.34;100.00;97000.63;5044077;28;20029;-55
2022/09/27 02:28:39;;;;;;;1.40;0.60;;;;;;;9.26;100.00;97009.13;5045202;28;20099;-54
2022/09/27 02:31:04;;;;;;;0.60;0.40;;;;;;;9.12;100.00;96999.66;5057257;28;20029;-55
2022/09/27 02:33:49;;;;;;;1.83;0.57;;;;;;;9.06;100.00;96996.00;5060702;28;20361;-54
2022/09/27 02:36:16;;;;;;;2.40;0.60;;;;;;;8.98;100.00;96997.19;5041754;28;20025;-54
2022/09/27 02:38:42;;;;;;;3.70;0.70;;;;;;;8.91;100.00;97001.91;5045818;28;20033;-55
2022/09/27 02:41:19;;;;;;;2.85;0.85;;;;;;;8.92;100.00;97002.75;5044204;28;20040;-54
2022/09/27 02:43:49;;;;;;;2.25;0.65;;;;;;;8.90;100.00;97000.25;5050324;28;20119;-54
2022/09/27 02:46:14;;;;;;;2.42;0.80;;;;;;;8.90;100.00;96999.44;5042376;28;20393;-54
2022/09/27 02:49:09;;;;;;;2.03;0.85;;;;;;;8.88;100.00;97009.66;5042888;28;20044;-54
2022/09/27 02:51:40;;;;;;;3.63;1.10;;;;;;;8.86;100.00;97012.59;5042437;28;20408;-54
2022/09/27 02:54:14;;;;;;;2.15;0.85;;;;;;;8.87;100.00;97005.31;5044185;28;20441;-55
2022/09/27 02:56:46;;;;;;;3.78;1.00;;;;;;;8.83;100.00;96996.91;5039009;28;20025;-54
2022/09/27 02:59:37;;;;;;;7.05;0.93;;;;;;;8.79;100.00;97006.50;5046055;28;20517;-54
2022/09/27 03:02:25;;;;;;;2.78;0.90;;;;;;;8.76;100.00;96996.19;5041876;28;20022;-54
2022/09/27 03:05:22;;;;;;;3.92;0.80;;;;;;;8.73;100.00;97007.47;5045893;28;20446;-54
2022/09/27 03:07:48;;;;;;;2.10;1.08;;;;;;;8.72;100.00;97008.50;5041323;28;20388;-54
2022/09/27 03:10:24;;;;;;;5.68;1.25;;;;;;;8.69;100.00;97011.66;5038154;28;20115;-54
2022/09/27 03:12:50;;;;;;;6.22;1.30;;;;;;;8.68;100.00;97010.03;5044399;28;20170;-54
2022/09/27 03:15:16;;;;;;;8.13;1.30;;;;;;;8.63;100.00;97010.72;5043022;28;20108;-54
2022/09/27 03:17:41;;;;;;;6.32;1.02;;;;;;;8.65;100.00;97005.13;5037620;28;20790;-54
2022/09/27 03:20:07;;;;;;;6.90;1.83;;;;;;;8.64;100.00;97015.06;5043800;28;20037;-54
2022/09/27 03:22:34;;;;;;;5.95;1.10;;;;;;;8.63;100.00;97018.81;5053758;28;20025;-54
2022/09/27 03:24:59;;;;;;;9.90;1.20;;;;;;;8.61;100.00;97030.88;5048438;28;20506;-54
2022/09/27 03:27:25;;;;;;;2.63;1.20;;;;;;;8.59;100.00;97023.03;5051562;28;20060;-54
2022/09/27 03:29:50;;;;;;;6.40;1.35;;;;;;;8.63;100.00;97024.22;5036704;28;20144;-54
2022/09/27 03:32:15;;;;;;;5.45;1.20;;;;;;;8.63;100.00;97020.69;5044565;28;20392;-54
2022/09/27 03:34:41;;;;;;;5.88;2.08;;;;;;;8.62;100.00;97027.97;5049039;28;20021;-54
2022/09/27 03:37:07;;;;;;;3.85;1.25;;;;;;;8.61;100.00;97022.81;5053637;28;20032;-54
2022/09/27 03:39:32;;;;;;;5.55;1.40;;;;;;;8.67;100.00;97027.25;5055800;28;20029;-54
2022/09/27 03:41:58;;;;;;;6.07;1.48;;;;;;;8.66;100.00;97026.44;5054329;28;20487;-54
2022/09/27 03:44:23;;;;;;;7.05;1.30;;;;;;;8.65;100.00;97035.59;5049097;28;20841;-54
2022/09/27 03:46:48;;;;;;;7.60;2.60;;;;;;;8.70;100.00;97024.09;5053216;28;20074;-54
2022/09/27 03:49:14;;;;;;;7.63;1.70;;;;;;;8.68;100.00;97032.41;5046780;28;20029;-54
2022/09/27 03:51:39;;;;;;;7.57;1.65;;;;;;;8.69;100.00;97033.22;5041313;28;20020;-54
2022/09/27 03:54:06;;;;;;;6.15;2.55;;;;;;;8.67;100.00;97038.03;5040189;28;20044;-55
2022/09/27 03:56:32;;;;;;;6.13;1.75;;;;;;;8.72;100.00;97027.38;5064348;28;20484;-55
2022/09/27 03:58:57;;;;;;;4.65;2.20;;;;;;;8.72;100.00;97021.97;5062265;28;20037;-54
2022/09/27 04:01:22;;;;;;;5.05;1.88;;;;;;;8.72;100.00;97032.75;5057515;28;20111;-54
2022/09/27 04:03:48;;;;;;;5.22;2.03;;;;;;;8.70;100.00;97051.06;5051309;28;20033;-55
2022/09/27 04:06:14;;;;;;;10.35;2.35;;;;;;;8.65;100.00;97043.69;5042125;28;20037;-55
2022/09/27 04:08:39;;;;;;;6.68;2.05;;;;;;;8.67;100.00;97038.03;5037342;28;20452;-55
2022/09/27 04:11:05;;;;;;;10.10;2.53;;;;;;;8.69;100.00;97052.09;5050526;28;20024;-56
2022/09/27 04:13:30;;;;;;;5.93;2.15;;;;;;;8.70;100.00;97056.47;5057690;28;20174;-55
2022/09/27 04:15:55;;;;;;;5.35;2.10;;;;;;;8.74;100.00;97052.22;5060398;28;20623;-55
2022/09/27 04:18:21;;;;;;;9.00;2.45;;;;;;;8.67;100.00;97052.34;5044593;28;20029;-55
2022/09/27 04:20:46;;;;;;;4.35;2.15;;;;;;;8.68;100.00;97048.59;5036377;28;20024;-55
2022/09/27 04:23:11;;;;;;;6.40;2.22;;;;;;;8.71;100.00;97063.47;5036835;28;20051;-55
2022/09/27 04:25:38;;;;;;;11.10;2.15;;;;;;;8.69;100.00;97060.19;5046673;28;20063;-55
2022/09/27 04:28:05;;;;;;;7.50;2.35;;;;;;;8.69;100.00;97055.63;5058005;28;20566;-55
2022/09/27 04:30:31;;;;;;;7.47;2.70;;;;;;;8.70;100.00;97053.75;5061220;28;20383;-55
2022/09/27 04:32:57;;;;;;;7.43;2.20;;;;;;;8.71;100.00;97064.28;5049300;28;20029;-55
2022/09/27 04:38:07;;;;;;;12.25;2.25;;;;;;;8.70;100.00;97065.38;5049750;28;20692;-55
2022/09/27 04:40:37;;;;;;;4.97;1.92;;;;;;;8.72;100.00;97070.50;5052750;28;20030;-55
2022/09/27 04:43:03;;;;;;;7.88;3.00;;;;;;;8.72;100.00;97070.50;5053391;28;20052;-55
2022/09/27 04:45:29;;;;;;;5.93;2.20;;;;;;;8.66;100.00;97069.56;5052694;28;20032;-55
2022/09/27 04:47:54;;;;;;;10.20;2.38;;;;;;;8.70;100.00;97067.25;5048699;28;20029;-55
2022/09/27 04:50:19;;;;;;;8.50;2.28;;;;;;;8.70;100.00;97067.25;5047518;28;20079;-55
2022/09/27 04:52:55;;;;;;;8.68;2.10;;;;;;;8.73;100.00;97070.28;5043965;28;20090;-55
2022/09/27 04:55:21;;;;;;;13.13;2.58;;;;;;;8.70;100.00;97067.25;5052250;28;20106;-55
2022/09/27 04:57:47;;;;;;;8.65;2.47;;;;;;;8.67;100.00;97070.38;5048063;28;20100;-55
2022/09/27 05:00:14;;;;;;;10.35;2.63;;;;;;;8.67;100.00;97068.53;5043662;28;20113;-55
2022/09/27 05:02:42;;;;;;;9.50;3.10;;;;;;;8.69;100.00;97070.97;5042021;28;21946;-55
2022/09/27 05:05:08;;;;;;;11.75;2.20;;;;;;;8.71;100.00;97079.66;5045392;28;20052;-55
2022/09/27 05:07:34;;;;;;;8.95;2.25;;;;;;;8.70;100.00;97078.03;5050012;28;20041;-54
2022/09/27 05:09:59;;;;;;;9.10;2.55;;;;;;;8.71;100.00;97079.66;5056277;28;20036;-55
2022/09/27 05:12:25;;;;;;;8.20;2.25;;;;;;;8.67;100.00;97091.94;5047452;28;20461;-55
2022/09/27 05:14:52;;;;;;;10.82;2.35;;;;;;;8.70;100.00;97097.72;5050904;28;20024;-55
2022/09/27 05:17:19;;;;;;;9.98;2.35;;;;;;;8.72;100.00;97094.78;5045163;28;20035;-55
2022/09/27 05:19:47;;;;;;;7.10;1.90;;;;;;;8.72;100.00;97109.09;5049495;28;20021;-54
2022/09/27 05:22:13;;;;;;;9.55;1.98;;;;;;;8.69;100.00;97108.72;5037390;28;20286;-55
2022/09/27 05:24:40;;;;;;;11.32;2.35;;;;;;;8.63;100.00;97115.06;5055259;28;20140;-55
2022/09/27 05:27:08;;;;;;;7.05;1.80;;;;;;;8.65;100.00;97113.75;5044875;28;20033;-55
2022/09/27 05:29:34;;;;;;;7.55;2.28;;;;;;;8.65;100.00;97115.66;5048985;28;20454;-55
2022/09/27 05:32:00;;;;;;;6.68;1.83;;;;;;;8.69;100.00;97117.63;5046854;28;20029;-55
2022/09/27 05:34:26;;;;;;;7.47;1.63;;;;;;;8.69;100.00;97116.81;5043114;28;20033;-54
2022/09/27 05:36:51;;;;;;;5.30;1.73;;;;;;;8.66;100.00;97114.59;5047708;28;20479;-55
2022/09/27 05:39:17;;;;;;;7.53;1.75;;;;;;;8.71;100.00;97122.78;5038556;28;20025;-55
2022/09/27 05:41:43;;;;;;;3.90;1.42;;;;;;;8.69;100.00;97127.59;5048249;28;20036;-55
2022/09/27 05:44:09;;;;;;;5.28;1.70;;;;;;;8.69;100.00;97124.91;5063744;28;20024;-55
2022/09/27 05:46:34;;;;;;;3.35;1.27;;;;;;;8.64;100.00;97136.38;5062941;28;20135;-56
2022/09/27 05:48:59;;;;;;;10.43;1.75;;;;;;;8.64;100.00;97139.06;5058073;28;20020;-55
2022/09/27 05:51:27;;;;;;;4.43;1.30;;;;;;;8.61;100.00;97146.81;5043912;28;20053;-55
2022/09/27 05:53:53;;;;;;;4.43;1.27;;;;;;;8.62;100.00;97151.13;5050102;28;20024;-55
2022/09/27 05:56:18;;;;;;;5.30;1.67;;;;;;;8.57;100.00;97154.53;5045053;28;20073;-55
2022/09/27 05:58:44;;;;;;;5.10;1.30;;;;;;;8.56;100.00;97158.28;5060634;28;20461;-55
2022/09/27 06:01:09;;;;;;;3.85;1.20;;;;;;;8.55;100.00;97170.13;5060850;28;20655;-55
2022/09/27 06:03:36;;;;;;;4.72;1.42;;;;;;;8.54;100.00;97163.91;5039142;28;20029;-55
2022/09/27 06:06:05;;;;;;;7.88;1.52;;;;;;;8.57;100.00;97168.03;5041113;28;20025;-55
2022/09/27 06:08:34;;;;;;;2.65;0.95;;;;;;;8.62;100.00;97160.06;5050119;28;20410;-56
2022/09/27 06:11:05;;;;;;;2.53;1.13;;;;;;;8.58;100.00;97161.56;5049888;28;20036;-55
2022/09/27 06:13:32;;;;;;;5.30;1.02;;;;;;;8.66;100.00;97163.09;5059951;28;20032;-55
2022/09/27 06:15:58;;;;;;;2.72;1.45;;;;;;;8.67;100.00;97175.53;5046735;28;20021;-56
2022/09/27 06:18:24;;;;;;;3.88;1.88;;;;;;;8.68;100.00;97171.78;5037414;28;20083;-56
2022/09/27 06:20:49;;;;;;;2.45;1.35;;;;;;;8.63;100.00;97180.56;5035200;28;20128;-55
2022/09/27 06:23:17;;;;;;;4.32;1.25;;;;;;;8.65;100.00;97166.88;5042145;28;20032;-55
2022/09/27 06:25:43;;;;;;;1.58;0.88;;;;;;;8.63;100.00;97164.38;5040414;28;20064;-56
2022/09/27 06:28:10;;;;;;;4.35;1.23;;;;;;;8.79;100.00;97187.16;5056026;28;20032;-56
2022/09/27 06:30:47;;;;;;;4.18;1.77;;;;;;;8.78;100.00;97190.94;5044249;28;22295;-55
2022/09/27 06:33:15;;;;;;;3.15;1.20;;;;;;;8.61;100.00;97190.75;5044735;28;20048;-57
2022/09/27 06:35:44;;;;;;;5.13;1.38;;;;;;;8.60;100.00;97208.00;5048796;28;20040;-57
2022/09/27 06:38:11;;;;;;;2.40;1.08;;;;;;;8.52;100.00;97201.06;5049435;28;20029;-57
2022/09/27 06:40:37;;;;;;;2.28;1.25;;;;;;;8.55;100.00;97211.38;5049846;28;20032;-56
2022/09/27 06:43:09;;;;;;;3.15;1.40;;;;;;;8.62;100.00;97205.03;5060058;28;20024;-56
2022/09/27 06:45:36;;;;;;;4.75;1.85;;;;;;;8.72;100.00;97205.31;5051035;28;20040;-56
2022/09/27 06:48:03;;;;;;;4.95;1.30;;;;;;;8.73;100.00;97213.19;5045475;28;20048;-55
2022/09/27 06:50:29;;;;;;;1.60;1.10;;;;;;;8.91;100.00;97220.38;5045279;28;20764;-55
2022/09/27 06:52:55;;;;;;;3.92;1.27;;;;;;;8.94;100.00;97214.50;5046301;28;20036;-56
2022/09/27 06:55:27;;;;;;;1.75;1.20;;;;;;;9.04;100.00;97202.31;5042350;28;20029;-56
2022/09/27 07:00:41;;;;;;;6.90;1.90;;;;;;;8.84;100.00;97225.03;5051037;28;20130;-56
2022/09/27 07:03:10;;;;;;;2.72;1.00;;;;;;;8.78;100.00;97221.41;5053193;28;20029;-56
2022/09/27 07:05:37;;;;;;;3.85;1.02;;;;;;;8.74;100.00;97224.78;5056578;28;20083;-56
2022/09/27 07:08:04;;;;;;;3.33;1.27;;;;;;;8.63;100.00;97239.06;5056269;28;20039;-55
2022/09/27 07:10:33;;;;;;;2.65;1.15;;;;;;;8.75;100.00;97231.81;5050776;28;20071;-55
2022/09/27 07:13:17;;;;;;;5.38;0.98;;;;;;;8.77;100.00;97232.41;5055798;28;20086;-55
2022/09/27 07:15:43;;;;;;;1.38;0.90;;;;;;;8.83;100.00;97231.50;5045950;28;20036;-55
2022/09/27 07:18:09;;;;;;;4.45;0.90;;;;;;;8.69;100.00;97208.47;5045702;28;20039;-55
2022/09/27 07:20:38;;;;;;;4.07;0.82;;;;;;;8.93;100.00;97223.69;5049452;28;20040;-56
2022/09/27 07:23:06;;;;;;;0.90;0.70;;;;;;;8.87;100.00;97224.56;5055453;28;20454;-56
2022/09/27 07:25:32;;;;;;;2.33;0.68;;;;;;;8.90;100.00;97231.38;5062199;28;20028;-55
2022/09/27 07:28:03;;;;;;;1.65;0.93;;;;;;;8.92;100.00;97237.38;5047584;28;20135;-56
2022/09/27 07:30:29;;;;;;;2.03;0.77;;;;;;;8.92;100.00;97243.59;5050133;28;20388;-55
2022/09/27 07:32:59;;;;;;;2.63;0.90;;;;;;;8.96;100.00;97233.16;5059674;28;20058;-56
2022/09/27 07:35:26;;;;;;;1.38;0.50;;;;;;;8.97;100.00;97243.72;5062077;28;20071;-56
2022/09/27 07:37:51;;;;;;;1.77;0.68;;;;;;;9.19;100.00;97253.94;5056982;28;20089;-56
2022/09/27 07:40:17;;;;;;;1.95;0.80;;;;;;;9.29;100.00;97248.00;5060078;28;20111;-56
2022/09/27 07:42:43;;;;;;;0.98;0.60;;;;;;;9.27;100.00;97245.50;5039517;28;20226;-56
2022/09/27 07:45:10;;;;;;;0.90;0.50;;;;;;;9.51;100.00;97240.97;5058965;28;20463;-56
2022/09/27 07:47:37;;;;;;;1.50;0.60;;;;;;;9.68;100.00;97256.47;5045523;28;20029;-56
2022/09/27 07:50:04;;;;;;;2.08;0.50;;;;;;;9.66;100.00;97262.09;5058713;28;20031;-56
2022/09/27 07:52:29;;;;;;;2.45;0.60;;;;;;;9.61;100.00;97261.97;5043654;28;20469;-56
2022/09/27 07:54:55;;;;;;;1.55;0.52;;;;;;;9.43;100.00;97252.94;5056636;28;20017;-56
2022/09/27 07:57:21;;;;;;;1.60;0.40;;;;;;;9.48;100.00;97270.28;5057868;28;20025;-56
2022/09/27 07:59:48;;;;;;;2.25;0.50;;;;;;;9.50;100.00;97266.31;5053097;28;20024;-56
2022/09/27 08:02:16;;;;;;;1.02;0.60;;;;;;;9.66;100.00;97272.88;5046935;28;20032;-56
2022/09/27 08:04:42;;;;;;;1.30;0.63;;;;;;;9.70;100.00;97271.38;5052588;28;20039;-56
2022/09/27 08:07:09;;;;;;;3.42;0.90;;;;;;;9.99;100.00;97263.34;5071314;28;20434;-56
2022/09/27 08:09:35;;;;;;;1.38;0.70;;;;;;;10.10;100.00;97273.31;5056281;28;20032;-57
2022/09/27 08:12:02;;;;;;;1.40;0.60;;;;;;;10.03;100.00;97276.16;5058394;28;20029;-56
2022/09/27 08:14:28;;;;;;;2.05;0.57;;;;;;;10.16;100.00;97285.06;5044837;28;20029;-55
2022/09/27 08:16:53;;;;;;;0.88;0.60;;;;;;;10.83;100.00;97279.13;5053936;28;20114;-56
2022/09/27 08:19:19;;;;;;;0.50;0.50;;;;;;;10.95;100.00;97280.72;5060966;28;20532;-56
2022/09/27 08:21:44;;;;;;;1.60;0.45;;;;;;;11.81;100.00;97280.47;5054583;28;20606;-56
2022/09/27 08:24:10;;;;;;;0.75;0.52;;;;;;;11.62;100.00;97289.94;5045004;28;20025;-56
2022/09/27 08:26:35;;;;;;;1.20;0.65;;;;;;;11.16;100.00;97276.47;5050462;28;20392;-56
2022/09/27 08:29:01;;;;;;;4.00;0.75;;;;;;;10.87;100.00;97291.94;5055107;28;20048;-56
2022/09/27 08:31:26;;;;;;;1.25;0.60;;;;;;;11.43;100.00;97289.38;5057883;28;20138;-54
2022/09/27 08:33:52;;;;;;;0.60;0.40;;;;;;;12.99;100.00;97291.97;5040580;28;20033;-54
2022/09/27 08:36:19;;;;;;;0.75;0.30;;;;;;;13.77;95.74;97290.50;5042556;28;20022;-55
2022/09/27 08:38:48;;;;;;;2.55;0.38;;;;;;;13.14;99.58;97297.56;5043928;28;20078;-54
2022/09/27 08:41:33;;;;;;;0.35;0.30;;;;;;;12.62;100.00;97285.34;5058779;28;20043;-53
2022/09/27 08:44:13;;;;;;;0.75;0.40;;;;;;;11.56;100.00;97291.75;5049937;28;20029;-54
2022/09/27 08:47:02;;;;;;;0.40;0.40;;;;;;;11.65;100.00;97313.00;5052592;28;20024;-54
2022/09/27 08:52:17;;;;;;;;;;;;;;;11.22;100.00;97312.56;5034727;28;20025;-55
2022/09/27 08:54:43;;;;;;;1.13;0.50;;;;;;;11.15;100.00;97314.59;5046157;28;19928;-54
2022/09/27 08:57:28;;;;;;;2.63;0.57;;;;;;;11.10;100.00;97311.81;5048063;28;20388;-55
2022/09/27 08:59:59;;;;;;;4.70;0.45;;;;;;;11.26;100.00;97315.59;5037777;22;20432;-67
2022/09/27 09:02:26;;;;;;;2.08;0.60;;;;;;;11.76;100.00;97320.22;4999915;28;20042;-67
2022/09/27 09:05:16;;;;;;;1.42;0.47;;;;;;;10.94;100.00;97326.94;5005226;28;20026;-68
2022/09/27 09:08:01;;;;;;;1.35;0.70;;;;;;;10.92;100.00;97326.34;4999267;28;20034;-67
2022/09/27 09:13:45;;;;;;;1.48;0.63;;;;;;;10.90;100.00;97336.63;5009264;28;20033;-66
2022/09/27 09:16:37;;;;;;;1.75;0.30;;;;;;;10.66;100.00;97336.69;4998993;28;20030;-67
2022/09/27 09:19:29;;;;;;;1.27;0.55;;;;;;;10.87;100.00;97335.22;4997472;28;20033;-67
2022/09/27 09:22:07;;;;;;;3.47;0.60;;;;;;;11.06;100.00;97340.44;5001304;28;20026;-69
2022/09/27 09:24:56;;;;;;;2.60;0.60;;;;;;;11.20;100.00;97320.09;5009151;28;20026;-70
2022/09/27 09:27:45;;;;;;;0.98;0.65;;;;;;;11.07;100.00;97334.75;5006662;28;20033;-71
2022/09/27 09:30:17;;;;;;;4.05;1.05;;;;;;;10.64;100.00;97328.00;5001410;28;20092;-70
2022/09/27 09:32:57;;;;;;;3.40;0.65;;;;;;;10.63;100.00;97322.81;5006242;28;20049;-69
2022/09/27 09:35:33;;;;;;;2.78;1.02;;;;;;;10.85;100.00;97323.81;5003356;28;20065;-70
2022/09/27 09:38:03;;;;;;;1.98;0.80;;;;;;;11.22;100.00;97315.28;5001673;28;20124;-70
2022/09/27 09:40:42;;;;;;;5.70;0.85;;;;;;;11.35;100.00;97319.56;4992935;28;20077;-73
2022/09/27 09:43:19;;;;;;;2.33;0.90;;;;;;;12.76;100.00;97328.38;5004403;28;20537;-73
2022/09/27 09:45:49;;;;;;;2.33;0.68;;;;;;;16.21;78.16;97317.88;5007545;28;20400;-73
2022/09/27 09:48:28;;;;;;;3.63;0.68;;;;;;;17.08;69.54;97312.94;5004841;28;20026;-73
2022/09/27 09:50:58;;;;;;;1.60;0.73;;;;;;;16.99;64.94;97292.75;5017132;28;20091;-74
2022/09/27 09:53:41;;;;;;;2.80;0.95;;;;;;;18.04;64.18;97303.50;5008959;28;20022;-73
2022/09/27 09:56:17;;;;;;;4.22;0.70;;;;;;;18.39;60.46;97294.91;4997484;28;20033;-73
2022/09/27 09:58:57;;;;;;;2.50;0.93;;;;;;;16.14;66.26;97301.81;5009563;28;20096;-73
2022/09/27 10:01:27;;;;;;;2.35;0.60;;;;;;;14.36;71.68;97313.19;5009529;28;20408;-74
2022/09/27 10:03:55;;;;;;;2.63;0.60;;;;;;;12.81;79.52;97290.44;5005719;28;20068;-74
2022/09/27 10:06:21;;;;;;;2.17;0.77;;;;;;;12.11;81.12;97311.81;5007584;28;20183;-73
2022/09/27 10:08:47;;;;;;;1.67;0.90;;;;;;;12.41;82.70;97316.81;5011986;28;20038;-73
2022/09/27 10:11:22;;;;;;;4.15;0.82;;;;;;;11.65;86.27;97302.97;5010105;28;20032;-73
2022/09/27 10:13:48;;;;;;;2.22;0.85;;;;;;;11.87;89.73;97313.09;5000159;28;20065;-73
2022/09/27 10:16:17;;;;;;;3.30;1.00;;;;;;;11.71;91.22;97295.75;5004707;28;20113;-73
2022/09/27 10:18:43;;;;;;;4.13;1.00;;;;;;;12.79;87.18;97287.19;5009114;28;20076;-73
2022/09/27 10:21:24;;;;;;;3.95;1.00;;;;;;;14.01;78.21;97306.44;5007896;28;20073;-74
2022/09/27 10:24:14;;;;;;;3.47;1.08;;;;;;;14.81;73.26;97304.44;5007861;28;20018;-73
2022/09/27 10:26:42;;;;;;;5.30;1.13;;;;;;;14.04;73.83;97300.47;5000254;28;20034;-74
2022/09/27 10:29:16;;;;;;;3.50;0.80;;;;;;;14.16;72.51;97290.22;5001307;28;20025;-73
2022/09/27 10:31:46;;;;;;;3.58;0.85;;;;;;;14.46;72.81;97308.63;5006689;28;20037;-73
2022/09/27 10:34:33;;;;;;;4.65;1.30;;;;;;;12.98;75.70;97290.34;5010720;28;20025;-74
2022/09/27 10:37:04;;;;;;;5.35;1.52;;;;;;;12.47;80.53;97310.41;5013828;28;20026;-73
2022/09/27 10:39:30;;;;;;;6.30;1.30;;;;;;;12.22;83.82;97308.19;5012415;28;20427;-71
2022/09/27 10:41:55;;;;;;;3.95;1.10;;;;;;;12.53;84.15;97278.75;5012442;28;20029;-71
2022/09/27 10:44:26;;;;;;;4.13;1.33;;;;;;;13.32;82.69;97299.13;5012640;28;20156;-70
2022/09/27 10:46:59;;;;;;;4.75;1.05;;;;;;;13.18;81.62;97273.41;5007644;28;20030;-72
2022/09/27 10:49:32;;;;;;;2.80;0.75;;;;;;;12.85;81.79;97295.09;5007976;28;20100;-74
2022/09/27 10:52:01;;;;;;;4.05;1.20;;;;;;;12.37;84.27;97275.03;5016660;28;20029;-72
2022/09/27 10:54:29;;;;;;;1.98;0.70;;;;;;;12.01;89.06;97293.53;5015964;28;20030;-72
2022/09/27 10:57:04;;;;;;;5.35;1.08;;;;;;;11.29;100.00;97298.84;5006517;28;20034;-72
2022/09/27 10:59:34;;;;;;;2.88;0.77;;;;;;;11.12;100.00;97296.97;5012819;28;20064;-72
2022/09/27 11:02:01;;;;;;;3.38;0.90;;;;;;;10.57;100.00;97311.06;5008685;28;20029;-72
2022/09/27 11:04:36;;;;;;;4.35;0.95;;;;;;;10.51;100.00;97295.81;5018150;28;20788;-72
2022/09/27 11:07:14;;;;;;;3.33;0.70;;;;;;;10.48;100.00;97320.66;5012775;28;20025;-72
2022/09/27 11:09:53;;;;;;;2.00;0.68;;;;;;;10.37;100.00;97316.06;5025534;23;20037;-60
2022/09/27 11:12:21;;;;;;;;;;;;;;;10.20;100.00;97319.47;5030423;28;20152;-60
2022/09/27 11:15:18;;;;;;;1.67;0.82;;;;;;;9.93;100.00;97313.75;5010599;28;19920;-60
2022/09/27 11:18:00;;;;;;;1.80;0.82;;;;;;;9.94;100.00;97309.19;5009602;28;20072;-61
2022/09/27 11:21:02;;;;;;;5.53;0.88;;;;;;;10.27;100.00;97290.47;5007362;28;20034;-61
2022/09/27 11:24:08;;;;;;;4.90;0.88;;;;;;;10.53;100.00;97302.63;4992250;28;20034;-61
2022/09/27 11:27:10;;;;;;;1.35;1.02;;;;;;;10.84;100.00;97291.56;4990228;28;20080;-61
2022/09/27 11:29:38;;;;;;;3.80;1.20;;;;;;;10.90;100.00;97291.44;5019506;28;20088;-61
2022/09/27 11:32:17;;;;;;;3.70;0.65;;;;;;;10.33;100.00;97306.81;5032677;28;20045;-61
2022/09/27 11:35:17;;;;;;;3.38;0.93;;;;;;;10.24;100.00;97304.44;5015137;28;20074;-61
2022/09/27 11:38:01;;;;;;;2.25;0.90;;;;;;;10.06;100.00;97312.66;4995687;28;20041;-61
2022/09/27 11:40:27;;;;;;;6.40;1.65;;;;;;;9.93;100.00;97318.31;5002019;28;20024;-62
2022/09/27 11:43:04;;;;;;;2.47;1.10;;;;;;;9.95;100.00;97313.50;5027603;28;20021;-61
2022/09/27 11:45:46;;;;;;;3.88;1.00;;;;;;;9.77;100.00;97334.19;5009017;28;20026;-61
2022/09/27 11:48:49;;;;;;;4.97;1.08;;;;;;;9.55;100.00;97327.72;5029320;28;20072;-62
2022/09/27 11:51:53;;;;;;;2.00;0.90;;;;;;;9.08;100.00;97336.53;5024336;28;20029;-60
2022/09/27 11:54:36;;;;;;;3.83;0.65;;;;;;;8.77;100.00;97334.88;5026372;28;20028;-59
2022/09/27 11:57:22;;;;;;;2.72;0.45;;;;;;;8.66;100.00;97330.25;5005650;28;20049;-60
2022/09/27 12:00:12;;;;;;;1.73;0.40;;;;;;;8.57;100.00;97327.06;5030771;28;20026;-59
2022/09/27 12:03:03;;;;;;;2.97;0.50;;;;;;;8.39;100.00;97329.75;5004255;28;20030;-61
2022/09/27 12:05:41;;;;;;;1.70;0.40;;;;;;;8.43;100.00;97333.66;5008017;28;20018;-60